createdAt,value
2016-07-05T00:00:54.224Z,1011.81
2016-07-05T00:01:54.224Z,1011.8
2016-07-05T00:02:54.226Z,1011.8
2016-07-05T00:03:54.223Z,1011.82
2016-07-05T00:04:54.225Z,1011.8
2016-07-05T00:05:54.225Z,1011.81
2016-07-05T00:06:54.227Z,1011.79
2016-07-05T00:07:54.241Z,1011.76
2016-07-05T00:08:54.227Z,1011.78
2016-07-05T00:09:54.225Z,1011.73
2016-07-05T00:10:54.226Z,1011.77
2016-07-05T00:11:54.222Z,1011.75
2016-07-05T00:12:54.226Z,1011.74
2016-07-05T00:13:54.229Z,1011.69
2016-07-05T00:14:54.226Z,1011.73
2016-07-05T00:15:54.225Z,1011.7
2016-07-05T00:16:54.229Z,1011.66
2016-07-05T00:17:54.226Z,1011.66
2016-07-05T00:18:54.236Z,1011.69
2016-07-05T00:19:54.248Z,1011.66
2016-07-05T00:20:54.226Z,1011.64
2016-07-05T00:21:54.227Z,1011.59
2016-07-05T00:22:54.230Z,1011.61
2016-07-05T00:23:54.229Z,1011.62
2016-07-05T00:24:54.227Z,1011.61
2016-07-05T00:25:54.225Z,1011.62
2016-07-05T00:26:54.223Z,1011.6
2016-07-05T00:27:54.225Z,1011.58
2016-07-05T00:28:54.222Z,1011.58
2016-07-05T00:29:54.224Z,1011.58
2016-07-05T00:30:54.229Z,1011.55
2016-07-05T00:31:54.228Z,1011.56
2016-07-05T00:32:54.227Z,1011.57
2016-07-05T00:33:54.229Z,1011.57
2016-07-05T00:34:54.229Z,1011.55
2016-07-05T00:35:54.228Z,1011.53
2016-07-05T00:36:54.229Z,1011.54
2016-07-05T00:37:54.230Z,1011.53
2016-07-05T00:38:54.226Z,1011.5
2016-07-05T00:39:54.229Z,1011.47
2016-07-05T00:40:54.226Z,1011.5
2016-07-05T00:41:54.229Z,1011.46
2016-07-05T00:42:54.227Z,1011.45
2016-07-05T00:43:54.222Z,1011.45
2016-07-05T00:44:54.227Z,1011.42
2016-07-05T00:45:54.430Z,1011.46
2016-07-05T00:46:54.228Z,1011.43
2016-07-05T00:47:54.241Z,1011.42
2016-07-05T00:48:54.231Z,1011.42
2016-07-05T00:49:54.228Z,1011.4
2016-07-05T00:50:54.228Z,1011.41
2016-07-05T00:51:54.228Z,1011.4
2016-07-05T00:52:54.228Z,1011.38
2016-07-05T00:53:54.224Z,1011.37
2016-07-05T00:54:54.226Z,1011.36
2016-07-05T00:55:54.228Z,1011.35
2016-07-05T00:56:54.228Z,1011.33
2016-07-05T00:57:54.227Z,1011.35
2016-07-05T00:58:54.228Z,1011.38
2016-07-05T00:59:54.229Z,1011.33
2016-07-05T01:00:54.226Z,1011.37
2016-07-05T01:01:54.223Z,1011.35
2016-07-05T01:02:54.222Z,1011.38
2016-07-05T01:03:54.223Z,1011.38
2016-07-05T01:04:54.226Z,1011.35
2016-07-05T01:05:54.220Z,1011.36
2016-07-05T01:06:54.227Z,1011.32
2016-07-05T01:07:54.225Z,1011.3
2016-07-05T01:08:54.219Z,1011.26
2016-07-05T01:09:54.225Z,1011.3
2016-07-05T01:10:54.224Z,1011.3
2016-07-05T01:11:54.220Z,1011.29
2016-07-05T01:12:54.224Z,1011.23
2016-07-05T01:13:54.222Z,1011.22
2016-07-05T01:14:54.222Z,1011.27
2016-07-05T01:15:54.224Z,1011.24
2016-07-05T01:16:54.225Z,1011.23
2016-07-05T01:17:54.225Z,1011.2
2016-07-05T01:18:54.221Z,1011.2
2016-07-05T01:19:54.223Z,1011.18
2016-07-05T01:20:54.221Z,1011.18
2016-07-05T01:21:54.220Z,1011.16
2016-07-05T01:22:54.223Z,1011.12
2016-07-05T01:23:54.421Z,1011.15
2016-07-05T01:24:54.221Z,1011.09
2016-07-05T01:25:54.223Z,1011.07
2016-07-05T01:26:54.221Z,1011.05
2016-07-05T01:27:54.222Z,1011.01
2016-07-05T01:28:54.221Z,1010.96
2016-07-05T01:29:54.219Z,1010.95
2016-07-05T01:30:54.220Z,1010.92
2016-07-05T01:31:54.215Z,1010.89
2016-07-05T01:32:54.218Z,1010.86
2016-07-05T01:33:54.214Z,1010.88
2016-07-05T01:34:54.216Z,1010.88
2016-07-05T01:35:54.215Z,1010.86
2016-07-05T01:36:54.220Z,1010.82
2016-07-05T01:37:54.213Z,1010.78
2016-07-05T01:38:54.218Z,1010.79
2016-07-05T01:39:54.215Z,1010.79
2016-07-05T01:40:54.213Z,1010.75
2016-07-05T01:41:54.218Z,1010.77
2016-07-05T01:42:54.215Z,1010.73
2016-07-05T01:43:54.224Z,1010.73
2016-07-05T01:44:54.212Z,1010.72
2016-07-05T01:45:54.215Z,1010.7
2016-07-05T01:46:54.216Z,1010.72
2016-07-05T01:47:54.412Z,1010.67
2016-07-05T01:48:54.213Z,1010.65
2016-07-05T01:49:54.213Z,1010.59
2016-07-05T01:50:54.212Z,1010.58
2016-07-05T01:51:54.216Z,1010.55
2016-07-05T01:52:54.211Z,1010.54
2016-07-05T01:53:54.212Z,1010.54
2016-07-05T01:54:54.414Z,1010.52
2016-07-05T01:55:54.211Z,1010.49
2016-07-05T01:56:54.212Z,1010.51
2016-07-05T01:57:54.214Z,1010.46
2016-07-05T01:58:54.213Z,1010.47
2016-07-05T01:59:54.210Z,1010.44
2016-07-05T02:00:54.271Z,1010.44
2016-07-05T02:01:54.469Z,1010.4
2016-07-05T02:02:54.262Z,1010.42
2016-07-05T02:03:54.205Z,1010.41
2016-07-05T02:04:54.208Z,1010.38
2016-07-05T02:05:54.208Z,1010.39
2016-07-05T02:06:54.203Z,1010.38
2016-07-05T02:07:54.207Z,1010.4
2016-07-05T02:08:54.207Z,1010.39
2016-07-05T02:09:54.204Z,1010.37
2016-07-05T02:10:54.419Z,1010.34
2016-07-05T02:11:54.199Z,1010.32
2016-07-05T02:12:54.204Z,1010.3
2016-07-05T02:13:54.206Z,1010.33
2016-07-05T02:14:54.204Z,1010.33
2016-07-05T02:15:54.201Z,1010.35
2016-07-05T02:16:54.199Z,1010.32
2016-07-05T02:17:54.208Z,1010.3
2016-07-05T02:18:54.203Z,1010.28
2016-07-05T02:19:54.201Z,1010.28
2016-07-05T02:20:54.203Z,1010.27
2016-07-05T02:21:54.201Z,1010.29
2016-07-05T02:22:54.200Z,1010.28
2016-07-05T02:23:54.200Z,1010.26
2016-07-05T02:24:54.199Z,1010.28
2016-07-05T02:25:54.202Z,1010.26
2016-07-05T02:26:54.197Z,1010.29
2016-07-05T02:27:54.192Z,1010.25
2016-07-05T02:28:54.193Z,1010.24
2016-07-05T02:29:54.197Z,1010.22
2016-07-05T02:30:54.196Z,1010.2
2016-07-05T02:31:54.192Z,1010.23
2016-07-05T02:32:54.194Z,1010.2
2016-07-05T02:33:54.191Z,1010.25
2016-07-05T02:34:54.191Z,1010.23
2016-07-05T02:35:54.191Z,1010.19
2016-07-05T02:36:54.190Z,1010.19
2016-07-05T02:37:54.195Z,1010.15
2016-07-05T02:38:54.190Z,1010.15
2016-07-05T02:39:54.190Z,1010.12
2016-07-05T02:40:54.188Z,1010.05
2016-07-05T02:41:54.187Z,1010.12
2016-07-05T02:42:54.189Z,1010.05
2016-07-05T02:43:54.184Z,1010.06
2016-07-05T02:44:54.188Z,1010.01
2016-07-05T02:45:54.187Z,1010.02
2016-07-05T02:46:54.186Z,1009.99
2016-07-05T02:47:54.191Z,1009.99
2016-07-05T02:48:54.190Z,1009.96
2016-07-05T02:49:54.184Z,1009.95
2016-07-05T02:50:54.182Z,1009.92
2016-07-05T02:51:54.188Z,1009.93
2016-07-05T02:52:54.185Z,1009.9
2016-07-05T02:53:54.187Z,1009.97
2016-07-05T02:54:54.185Z,1009.91
2016-07-05T02:55:54.185Z,1009.92
2016-07-05T02:56:54.195Z,1009.93
2016-07-05T02:57:54.179Z,1009.93
2016-07-05T02:58:54.177Z,1009.88
2016-07-05T02:59:54.180Z,1009.87
2016-07-05T03:00:54.180Z,1009.86
2016-07-05T03:01:54.178Z,1009.85
2016-07-05T03:02:54.178Z,1009.82
2016-07-05T03:03:54.176Z,1009.83
2016-07-05T03:04:54.178Z,1009.81
2016-07-05T03:05:54.169Z,1009.78
2016-07-05T03:06:54.176Z,1009.76
2016-07-05T03:07:54.169Z,1009.77
2016-07-05T03:08:54.182Z,1009.79
2016-07-05T03:09:54.173Z,1009.78
2016-07-05T03:10:54.172Z,1009.83
2016-07-05T03:11:54.173Z,1009.78
2016-07-05T03:12:54.172Z,1009.77
2016-07-05T03:13:54.175Z,1009.78
2016-07-05T03:14:54.168Z,1009.75
2016-07-05T03:15:54.168Z,1009.76
2016-07-05T03:16:54.172Z,1009.76
2016-07-05T03:17:54.172Z,1009.72
2016-07-05T03:18:54.169Z,1009.78
2016-07-05T03:19:54.166Z,1009.82
2016-07-05T03:20:54.169Z,1009.81
2016-07-05T03:21:54.166Z,1009.8
2016-07-05T03:22:54.165Z,1009.8
2016-07-05T03:23:54.162Z,1009.87
2016-07-05T03:24:54.162Z,1009.84
2016-07-05T03:25:54.164Z,1009.8
2016-07-05T03:26:54.164Z,1009.84
2016-07-05T03:27:54.164Z,1009.81
2016-07-05T03:28:54.160Z,1009.8
2016-07-05T03:29:54.161Z,1009.75
2016-07-05T03:30:54.159Z,1009.73
2016-07-05T03:31:54.160Z,1009.78
2016-07-05T03:32:54.159Z,1009.74
2016-07-05T03:33:54.159Z,1009.76
2016-07-05T03:34:54.153Z,1009.74
2016-07-05T03:35:54.153Z,1009.76
2016-07-05T03:36:54.157Z,1009.73
2016-07-05T03:37:54.146Z,1009.72
2016-07-05T03:38:54.150Z,1009.73
2016-07-05T03:39:54.151Z,1009.76
2016-07-05T03:40:54.149Z,1009.77
2016-07-05T03:41:54.147Z,1009.74
2016-07-05T03:42:54.151Z,1009.78
2016-07-05T03:43:54.150Z,1009.79
2016-07-05T03:44:54.148Z,1009.76
2016-07-05T03:45:54.146Z,1009.78
2016-07-05T03:46:54.147Z,1009.72
2016-07-05T03:47:54.145Z,1009.73
2016-07-05T03:48:54.141Z,1009.72
2016-07-05T03:49:54.147Z,1009.72
2016-07-05T03:50:54.145Z,1009.72
2016-07-05T03:51:54.144Z,1009.73
2016-07-05T03:52:54.140Z,1009.75
2016-07-05T03:53:54.143Z,1009.72
2016-07-05T03:54:54.141Z,1009.74
2016-07-05T03:55:54.146Z,1009.7
2016-07-05T03:56:54.144Z,1009.7
2016-07-05T03:57:54.141Z,1009.73
2016-07-05T03:58:54.137Z,1009.7
2016-07-05T03:59:54.136Z,1009.69
2016-07-05T04:00:54.135Z,1009.68
2016-07-05T04:01:54.136Z,1009.71
2016-07-05T04:02:54.137Z,1009.69
2016-07-05T04:03:54.134Z,1009.68
2016-07-05T04:04:54.133Z,1009.61
2016-07-05T04:05:54.131Z,1009.63
2016-07-05T04:06:54.133Z,1009.65
2016-07-05T04:07:54.131Z,1009.64
2016-07-05T04:08:54.136Z,1009.62
2016-07-05T04:09:54.132Z,1009.61
2016-07-05T04:10:54.131Z,1009.57
2016-07-05T04:11:54.128Z,1009.55
2016-07-05T04:12:54.329Z,1009.56
2016-07-05T04:13:54.126Z,1009.55
2016-07-05T04:14:54.146Z,1009.52
2016-07-05T04:15:54.127Z,1009.52
2016-07-05T04:16:54.128Z,1009.5
2016-07-05T04:17:54.131Z,1009.5
2016-07-05T04:18:54.125Z,1009.49
2016-07-05T04:19:54.124Z,1009.48
2016-07-05T04:20:54.123Z,1009.5
2016-07-05T04:21:54.117Z,1009.42
2016-07-05T04:22:54.119Z,1009.42
2016-07-05T04:23:54.116Z,1009.41
2016-07-05T04:24:54.122Z,1009.42
2016-07-05T04:25:54.121Z,1009.43
2016-07-05T04:26:54.119Z,1009.39
2016-07-05T04:27:54.118Z,1009.4
2016-07-05T04:28:54.116Z,1009.36
2016-07-05T04:29:54.117Z,1009.35
2016-07-05T04:30:54.112Z,1009.38
2016-07-05T04:31:54.113Z,1009.39
2016-07-05T04:32:54.107Z,1009.38
2016-07-05T04:33:54.114Z,1009.38
2016-07-05T04:34:54.112Z,1009.37
2016-07-05T04:35:54.110Z,1009.33
2016-07-05T04:36:54.107Z,1009.36
2016-07-05T04:37:54.111Z,1009.36
2016-07-05T04:38:54.107Z,1009.36
2016-07-05T04:39:54.106Z,1009.39
2016-07-05T04:40:54.100Z,1009.4
2016-07-05T04:41:54.108Z,1009.4
2016-07-05T04:42:54.101Z,1009.42
2016-07-05T04:43:54.106Z,1009.38
2016-07-05T04:44:54.101Z,1009.35
2016-07-05T04:45:54.097Z,1009.37
2016-07-05T04:46:54.101Z,1009.34
2016-07-05T04:47:54.301Z,1009.37
2016-07-05T04:48:54.096Z,1009.37
2016-07-05T04:49:54.093Z,1009.38
2016-07-05T04:50:54.094Z,1009.39
2016-07-05T04:51:54.090Z,1009.42
2016-07-05T04:52:54.088Z,1009.39
2016-07-05T04:53:54.093Z,1009.41
2016-07-05T04:54:54.091Z,1009.37
2016-07-05T04:55:54.090Z,1009.43
2016-07-05T04:56:54.087Z,1009.4
2016-07-05T04:57:54.085Z,1009.38
2016-07-05T04:58:54.085Z,1009.45
2016-07-05T04:59:54.085Z,1009.41
2016-07-05T05:00:54.085Z,1009.43
2016-07-05T05:01:54.087Z,1009.45
2016-07-05T05:02:54.083Z,1009.41
2016-07-05T05:03:54.081Z,1009.46
2016-07-05T05:04:54.083Z,1009.41
2016-07-05T05:05:54.080Z,1009.44
2016-07-05T05:06:54.077Z,1009.45
2016-07-05T05:07:54.076Z,1009.47
2016-07-05T05:08:54.274Z,1009.46
2016-07-05T05:09:54.070Z,1009.45
2016-07-05T05:10:54.075Z,1009.48
2016-07-05T05:11:54.073Z,1009.46
2016-07-05T05:12:54.071Z,1009.51
2016-07-05T05:13:54.069Z,1009.47
2016-07-05T05:14:54.068Z,1009.49
2016-07-05T05:15:54.076Z,1009.46
2016-07-05T05:16:54.066Z,1009.47
2016-07-05T05:17:54.067Z,1009.48
2016-07-05T05:18:54.064Z,1009.48
2016-07-05T05:19:54.065Z,1009.51
2016-07-05T05:20:54.063Z,1009.53
2016-07-05T05:21:54.061Z,1009.53
2016-07-05T05:22:54.058Z,1009.52
2016-07-05T05:23:54.056Z,1009.55
2016-07-05T05:24:54.058Z,1009.52
2016-07-05T05:25:54.057Z,1009.54
2016-07-05T05:26:54.055Z,1009.55
2016-07-05T05:27:54.255Z,1009.57
2016-07-05T05:28:54.254Z,1009.54
2016-07-05T05:29:54.052Z,1009.54
2016-07-05T05:30:54.052Z,1009.52
2016-07-05T05:31:54.052Z,1009.52
2016-07-05T05:32:54.051Z,1009.54
2016-07-05T05:33:54.045Z,1009.49
2016-07-05T05:34:54.040Z,1009.54
2016-07-05T05:35:54.049Z,1009.52
2016-07-05T05:36:54.046Z,1009.53
2016-07-05T05:37:54.039Z,1009.54
2016-07-05T05:38:54.037Z,1009.49
2016-07-05T05:39:54.037Z,1009.5
2016-07-05T05:40:54.243Z,1009.57
2016-07-05T05:41:54.041Z,1009.51
2016-07-05T05:42:54.039Z,1009.52
2016-07-05T05:43:54.237Z,1009.52
2016-07-05T05:44:54.038Z,1009.53
2016-07-05T05:45:54.238Z,1009.54
2016-07-05T05:46:54.035Z,1009.51
2016-07-05T05:47:54.034Z,1009.53
2016-07-05T05:48:54.028Z,1009.51
2016-07-05T05:49:54.233Z,1009.53
2016-07-05T05:50:54.026Z,1009.5
2016-07-05T05:51:54.232Z,1009.56
2016-07-05T05:52:54.029Z,1009.59
2016-07-05T05:53:54.395Z,1009.59
2016-07-05T05:54:54.025Z,1009.56
2016-07-05T05:55:54.022Z,1009.54
2016-07-05T05:56:54.018Z,1009.56
2016-07-05T05:57:54.023Z,1009.59
2016-07-05T05:58:54.218Z,1009.61
2016-07-05T05:59:54.016Z,1009.56
2016-07-05T06:00:54.013Z,1009.59
2016-07-05T06:01:54.016Z,1009.6
2016-07-05T06:02:54.015Z,1009.59
2016-07-05T06:03:54.011Z,1009.6
2016-07-05T06:04:54.011Z,1009.59
2016-07-05T06:05:54.011Z,1009.6
2016-07-05T06:06:54.009Z,1009.53
2016-07-05T06:07:54.009Z,1009.53
2016-07-05T06:08:54.006Z,1009.56
2016-07-05T06:09:54.005Z,1009.54
2016-07-05T06:10:54.002Z,1009.52
2016-07-05T06:11:53.999Z,1009.54
2016-07-05T06:12:54.002Z,1009.54
2016-07-05T06:13:54.000Z,1009.55
2016-07-05T06:14:53.996Z,1009.59
2016-07-05T06:15:53.993Z,1009.66
2016-07-05T06:16:53.997Z,1009.58
2016-07-05T06:18:31.276Z,1009.68
2016-07-05T06:19:31.271Z,1009.65
2016-07-05T06:20:31.270Z,1009.66
2016-07-05T06:21:31.276Z,1009.67
2016-07-05T06:22:31.268Z,1009.67
2016-07-05T06:23:31.272Z,1009.7
2016-07-05T06:24:31.271Z,1009.68
2016-07-05T06:25:31.266Z,1009.69
2016-07-05T06:26:31.265Z,1009.73
2016-07-05T06:27:31.658Z,1009.72
2016-07-05T06:28:31.265Z,1009.72
2016-07-05T06:29:31.264Z,1009.69
2016-07-05T06:30:31.257Z,1009.75
2016-07-05T06:31:31.261Z,1009.71
2016-07-05T06:32:31.256Z,1009.74
2016-07-05T06:33:31.272Z,1009.74
2016-07-05T06:34:31.257Z,1009.68
2016-07-05T06:35:31.254Z,1009.7
2016-07-05T06:36:31.254Z,1009.67
2016-07-05T06:37:31.260Z,1009.67
2016-07-05T06:38:31.253Z,1009.7
2016-07-05T06:39:31.275Z,1009.73
2016-07-05T06:40:31.251Z,1009.66
2016-07-05T06:41:31.247Z,1009.63
2016-07-05T06:42:31.249Z,1009.73
2016-07-05T06:43:31.243Z,1009.68
2016-07-05T06:44:31.246Z,1009.64
2016-07-05T06:45:31.246Z,1009.61
2016-07-05T06:46:31.243Z,1009.65
2016-07-05T06:47:31.247Z,1009.66
2016-07-05T06:48:32.199Z,1009.67
2016-07-05T06:49:31.260Z,1009.68
2016-07-05T06:50:31.243Z,1009.68
2016-07-05T06:51:31.455Z,1009.71
2016-07-05T06:52:31.250Z,1009.71
2016-07-05T06:53:32.099Z,1009.72
2016-07-05T06:54:31.272Z,1009.75
2016-07-05T06:55:31.245Z,1009.88
2016-07-05T06:56:31.241Z,1009.86
2016-07-05T06:57:31.244Z,1009.84
2016-07-05T06:58:31.260Z,1009.83
2016-07-05T06:59:31.239Z,1009.85
2016-07-05T07:00:31.242Z,1009.8
2016-07-05T07:01:31.239Z,1009.81
2016-07-05T07:02:31.246Z,1009.79
2016-07-05T07:03:31.245Z,1009.85
2016-07-05T07:04:31.242Z,1009.87
2016-07-05T07:05:31.235Z,1009.79
2016-07-05T07:06:31.291Z,1009.8
2016-07-05T07:07:31.242Z,1009.86
2016-07-05T07:08:31.441Z,1009.82
2016-07-05T07:09:31.883Z,1009.92
2016-07-05T07:10:31.237Z,1009.94
2016-07-05T07:11:31.240Z,1009.85
2016-07-05T07:12:31.372Z,1009.83
2016-07-05T07:13:31.238Z,1009.79
2016-07-05T07:14:31.372Z,1009.84
2016-07-05T07:15:31.239Z,1009.76
2016-07-05T07:16:31.239Z,1009.79
2016-07-05T07:17:31.343Z,1009.78
2016-07-05T07:18:31.443Z,1009.78
2016-07-05T07:19:31.307Z,1009.83
2016-07-05T07:20:31.688Z,1009.81
2016-07-05T07:21:31.247Z,1009.75
2016-07-05T07:22:31.248Z,1009.74
2016-07-05T07:23:31.239Z,1009.71
2016-07-05T07:24:31.238Z,1009.74
2016-07-05T07:25:31.247Z,1009.69
2016-07-05T07:26:31.240Z,1009.68
2016-07-05T07:27:31.250Z,1009.72
2016-07-05T07:28:31.248Z,1009.65
2016-07-05T07:29:31.315Z,1009.61
2016-07-05T07:30:31.479Z,1009.69
2016-07-05T07:31:31.239Z,1009.69
2016-07-05T07:32:31.243Z,1009.62
2016-07-05T07:33:31.239Z,1009.69
2016-07-05T07:34:31.272Z,1009.72
2016-07-05T07:35:31.240Z,1009.8
2016-07-05T07:36:31.507Z,1009.72
2016-07-05T07:37:31.246Z,1009.68
2016-07-05T07:38:31.245Z,1009.66
2016-07-05T07:39:31.249Z,1009.63
2016-07-05T07:40:31.248Z,1009.65
2016-07-05T07:41:31.252Z,1009.72
2016-07-05T07:42:31.251Z,1009.73
2016-07-05T07:43:31.251Z,1009.75
2016-07-05T07:44:31.252Z,1009.68
2016-07-05T07:45:31.267Z,1009.64
2016-07-05T07:46:34.116Z,1009.71
2016-07-05T07:47:33.455Z,1009.67
2016-07-05T07:48:31.256Z,1009.7
2016-07-05T07:49:31.259Z,1009.78
2016-07-05T07:50:31.259Z,1009.7
2016-07-05T07:51:31.259Z,1009.66
2016-07-05T07:52:31.270Z,1009.72
2016-07-05T07:53:36.713Z,1009.7
2016-07-05T07:54:32.319Z,1009.72
2016-07-05T07:55:31.260Z,1009.68
2016-07-05T07:56:32.488Z,1009.71
2016-07-05T07:57:31.264Z,1009.7
2016-07-05T07:58:31.271Z,1009.73
2016-07-05T07:59:31.274Z,1009.75
2016-07-05T08:00:31.268Z,1009.76
2016-07-05T08:01:31.278Z,1009.81
2016-07-05T08:02:31.272Z,1009.8
2016-07-05T08:03:31.267Z,1009.78
2016-07-05T08:04:31.268Z,1009.81
2016-07-05T08:05:31.273Z,1009.78
2016-07-05T08:06:31.272Z,1009.84
2016-07-05T08:07:34.056Z,1009.79
2016-07-05T08:08:31.274Z,1009.8
2016-07-05T08:09:31.274Z,1009.8
2016-07-05T08:10:31.276Z,1009.74
2016-07-05T08:11:31.276Z,1009.77
2016-07-05T08:12:31.276Z,1009.76
2016-07-05T08:13:31.279Z,1009.8
2016-07-05T08:14:31.283Z,1009.8
2016-07-05T08:15:31.278Z,1009.79
2016-07-05T08:16:31.350Z,1009.78
2016-07-05T08:17:31.281Z,1009.74
2016-07-05T08:18:31.279Z,1009.8
2016-07-05T08:19:31.283Z,1009.75
2016-07-05T08:20:31.294Z,1009.73
2016-07-05T08:21:31.287Z,1009.78
2016-07-05T08:22:31.480Z,1009.79
2016-07-05T08:23:31.487Z,1009.77
2016-07-05T08:24:31.284Z,1009.79
2016-07-05T08:25:31.288Z,1009.77
2016-07-05T08:26:31.286Z,1009.73
2016-07-05T08:27:31.289Z,1009.67
2016-07-05T08:28:31.292Z,1009.73
2016-07-05T08:29:31.291Z,1009.71
2016-07-05T08:30:31.291Z,1009.74
2016-07-05T08:31:31.292Z,1009.65
2016-07-05T08:32:31.313Z,1009.67
2016-07-05T08:33:31.297Z,1009.66
2016-07-05T08:34:32.328Z,1009.65
2016-07-05T08:35:31.301Z,1009.62
2016-07-05T08:36:31.504Z,1009.59
2016-07-05T08:37:31.301Z,1009.61
2016-07-05T08:38:31.309Z,1009.65
2016-07-05T08:39:31.297Z,1009.66
2016-07-05T08:40:31.307Z,1009.65
2016-07-05T08:41:31.309Z,1009.67
2016-07-05T08:42:31.308Z,1009.77
2016-07-05T08:43:31.519Z,1009.7
2016-07-05T08:44:31.309Z,1009.7
2016-07-05T08:45:31.321Z,1009.65
2016-07-05T08:46:31.897Z,1009.63
2016-07-05T08:47:31.311Z,1009.73
2016-07-05T08:48:31.323Z,1009.6
2016-07-05T08:49:31.315Z,1009.64
2016-07-05T08:50:31.519Z,1009.61
2016-07-05T08:51:31.324Z,1009.62
2016-07-05T08:52:31.319Z,1009.63
2016-07-05T08:53:31.321Z,1009.69
2016-07-05T08:54:31.326Z,1009.7
2016-07-05T08:55:31.323Z,1009.62
2016-07-05T08:56:31.329Z,1009.65
2016-07-05T08:57:31.325Z,1009.69
2016-07-05T08:58:31.329Z,1009.62
2016-07-05T08:59:31.331Z,1009.67
2016-07-05T09:00:31.333Z,1009.63
2016-07-05T09:01:31.336Z,1009.64
2016-07-05T09:02:31.334Z,1009.62
2016-07-05T09:03:31.335Z,1009.62
2016-07-05T09:04:31.338Z,1009.63
2016-07-05T09:05:31.341Z,1009.55
2016-07-05T09:06:31.363Z,1009.56
2016-07-05T09:07:31.341Z,1009.58
2016-07-05T09:08:31.346Z,1009.59
2016-07-05T09:09:31.359Z,1009.58
2016-07-05T09:10:31.347Z,1009.55
2016-07-05T09:11:31.364Z,1009.53
2016-07-05T09:12:31.352Z,1009.54
2016-07-05T09:13:31.349Z,1009.56
2016-07-05T09:14:31.550Z,1009.53
2016-07-05T09:15:31.354Z,1009.52
2016-07-05T09:16:31.349Z,1009.54
2016-07-05T09:17:31.352Z,1009.54
2016-07-05T09:18:31.359Z,1009.55
2016-07-05T09:19:31.359Z,1009.47
2016-07-05T09:20:31.358Z,1009.5
2016-07-05T09:21:31.352Z,1009.5
2016-07-05T09:22:31.360Z,1009.45
2016-07-05T09:23:31.364Z,1009.45
2016-07-05T09:24:31.362Z,1009.49
2016-07-05T09:25:31.563Z,1009.52
2016-07-05T09:26:31.373Z,1009.46
2016-07-05T09:27:31.360Z,1009.57
2016-07-05T09:28:31.362Z,1009.45
2016-07-05T09:29:31.366Z,1009.4
2016-07-05T09:30:31.367Z,1009.48
2016-07-05T09:31:31.368Z,1009.48
2016-07-05T09:32:31.367Z,1009.39
2016-07-05T09:33:31.366Z,1009.49
2016-07-05T09:34:31.416Z,1009.37
2016-07-05T09:35:31.379Z,1009.46
2016-07-05T09:36:31.369Z,1009.41
2016-07-05T09:37:31.369Z,1009.42
2016-07-05T09:38:31.370Z,1009.38
2016-07-05T09:39:31.371Z,1009.44
2016-07-05T09:40:31.365Z,1009.44
2016-07-05T09:41:31.371Z,1009.44
2016-07-05T09:42:31.364Z,1009.42
2016-07-05T09:43:31.369Z,1009.44
2016-07-05T09:44:31.370Z,1009.49
2016-07-05T09:45:31.373Z,1009.46
2016-07-05T09:46:31.366Z,1009.46
2016-07-05T09:47:31.511Z,1009.45
2016-07-05T09:48:31.370Z,1009.5
2016-07-05T09:49:31.369Z,1009.51
2016-07-05T09:50:31.372Z,1009.52
2016-07-05T09:51:31.371Z,1009.45
2016-07-05T09:52:31.371Z,1009.48
2016-07-05T09:53:31.370Z,1009.49
2016-07-05T09:54:31.371Z,1009.51
2016-07-05T09:55:31.373Z,1009.52
2016-07-05T09:56:31.375Z,1009.48
2016-07-05T09:57:31.574Z,1009.49
2016-07-05T09:58:31.376Z,1009.47
2016-07-05T09:59:31.374Z,1009.47
2016-07-05T10:00:31.375Z,1009.51
2016-07-05T10:01:31.378Z,1009.5
2016-07-05T10:02:31.377Z,1009.51
2016-07-05T10:03:31.375Z,1009.48
2016-07-05T10:04:31.376Z,1009.48
2016-07-05T10:05:31.376Z,1009.6
2016-07-05T10:06:31.378Z,1009.55
2016-07-05T10:07:31.380Z,1009.55
2016-07-05T10:08:31.379Z,1009.59
2016-07-05T10:09:31.468Z,1009.55
2016-07-05T10:10:31.585Z,1009.6
2016-07-05T10:11:31.380Z,1009.51
2016-07-05T10:12:31.443Z,1009.54
2016-07-05T10:13:31.422Z,1009.53
2016-07-05T10:14:31.406Z,1009.53
2016-07-05T10:15:31.381Z,1009.58
2016-07-05T10:16:31.383Z,1009.53
2016-07-05T10:17:31.383Z,1009.55
2016-07-05T10:18:31.382Z,1009.55
2016-07-05T10:19:31.584Z,1009.57
2016-07-05T10:20:31.383Z,1009.51
2016-07-05T10:21:31.385Z,1009.51
2016-07-05T10:22:31.378Z,1009.75
2016-07-05T10:23:31.382Z,1009.62
2016-07-05T10:24:31.382Z,1009.6
2016-07-05T10:25:31.384Z,1009.6
2016-07-05T10:26:31.383Z,1009.65
2016-07-05T10:27:31.383Z,1009.62
2016-07-05T10:28:31.384Z,1009.59
2016-07-05T10:29:31.388Z,1009.68
2016-07-05T10:30:31.385Z,1009.68
2016-07-05T10:31:31.386Z,1009.65
2016-07-05T10:32:31.391Z,1009.72
2016-07-05T10:33:31.389Z,1009.65
2016-07-05T10:34:31.391Z,1009.65
2016-07-05T10:35:31.386Z,1009.67
2016-07-05T10:36:31.392Z,1009.63
2016-07-05T10:37:31.391Z,1009.65
2016-07-05T10:38:31.392Z,1009.59
2016-07-05T10:39:31.395Z,1009.6
2016-07-05T10:40:31.394Z,1009.58
2016-07-05T10:41:31.396Z,1009.55
2016-07-05T10:42:31.399Z,1009.65
2016-07-05T10:43:31.398Z,1009.56
2016-07-05T10:44:31.397Z,1009.6
2016-07-05T10:45:31.400Z,1009.58
2016-07-05T10:46:31.406Z,1009.55
2016-07-05T10:47:31.405Z,1009.58
2016-07-05T10:48:31.403Z,1009.62
2016-07-05T10:49:31.406Z,1009.59
2016-07-05T10:50:31.406Z,1009.65
2016-07-05T10:51:31.408Z,1009.63
2016-07-05T10:52:31.409Z,1009.64
2016-07-05T10:53:31.411Z,1009.62
2016-07-05T10:54:31.409Z,1009.71
2016-07-05T10:55:31.412Z,1009.7
2016-07-05T10:56:31.415Z,1009.69
2016-07-05T10:57:31.416Z,1009.6
2016-07-05T10:58:31.419Z,1009.57
2016-07-05T10:59:31.432Z,1009.6
2016-07-05T11:00:31.434Z,1009.64
2016-07-05T11:01:31.818Z,1009.63
2016-07-05T11:02:33.063Z,1009.61
2016-07-05T11:03:31.425Z,1009.62
2016-07-05T11:04:31.426Z,1009.63
2016-07-05T11:05:31.423Z,1009.61
2016-07-05T11:06:31.767Z,1009.71
2016-07-05T11:07:35.774Z,1009.62
2016-07-05T11:08:32.721Z,1009.73
2016-07-05T11:09:31.578Z,1009.64
2016-07-05T11:10:31.489Z,1009.65
2016-07-05T11:11:35.723Z,1009.59
2016-07-05T11:12:31.644Z,1009.61
2016-07-05T11:13:31.437Z,1009.61
2016-07-05T11:14:31.439Z,1009.58
2016-07-05T11:15:31.438Z,1009.6
2016-07-05T11:16:31.451Z,1009.51
2016-07-05T11:17:31.448Z,1009.52
2016-07-05T11:18:31.446Z,1009.55
2016-07-05T11:19:34.180Z,1009.6
2016-07-05T11:20:31.455Z,1009.57
2016-07-05T11:21:31.452Z,1009.58
2016-07-05T11:22:31.451Z,1009.63
2016-07-05T11:23:31.730Z,1009.53
2016-07-05T11:24:31.457Z,1009.53
2016-07-05T11:25:31.460Z,1009.59
2016-07-05T11:26:31.462Z,1009.62
2016-07-05T11:27:31.460Z,1009.59
2016-07-05T11:28:31.462Z,1009.5
2016-07-05T11:29:31.503Z,1009.52
2016-07-05T11:30:31.470Z,1009.54
2016-07-05T11:31:31.467Z,1009.54
2016-07-05T11:32:31.468Z,1009.57
2016-07-05T11:33:31.476Z,1009.58
2016-07-05T11:34:31.471Z,1009.56
2016-07-05T11:35:31.471Z,1009.6
2016-07-05T11:36:31.473Z,1009.57
2016-07-05T11:37:31.481Z,1009.5
2016-07-05T11:38:31.479Z,1009.54
2016-07-05T11:39:31.479Z,1009.51
2016-07-05T11:40:31.482Z,1009.5
2016-07-05T11:41:31.485Z,1009.61
2016-07-05T11:42:31.484Z,1009.62
2016-07-05T11:43:31.604Z,1009.54
2016-07-05T11:44:31.489Z,1009.6
2016-07-05T11:45:31.490Z,1009.6
2016-07-05T11:46:31.514Z,1009.55
2016-07-05T11:47:31.493Z,1009.61
2016-07-05T11:48:35.577Z,1009.61
2016-07-05T11:49:37.580Z,1009.55
2016-07-05T11:50:31.498Z,1009.56
2016-07-05T11:51:31.499Z,1009.59
2016-07-05T11:52:31.504Z,1009.58
2016-07-05T11:53:31.566Z,1009.63
2016-07-05T11:54:32.089Z,1009.66
2016-07-05T11:55:31.506Z,1009.67
2016-07-05T11:56:31.521Z,1009.7
2016-07-05T11:57:31.505Z,1009.72
2016-07-05T11:58:34.363Z,1009.74
2016-07-05T11:59:31.566Z,1009.72
2016-07-05T12:00:31.509Z,1009.74
2016-07-05T12:01:31.512Z,1009.74
2016-07-05T12:02:31.526Z,1009.73
2016-07-05T12:03:31.519Z,1009.74
2016-07-05T12:04:31.522Z,1009.72
2016-07-05T12:05:31.520Z,1009.7
2016-07-05T12:06:31.529Z,1009.65
2016-07-05T12:07:32.002Z,1009.6
2016-07-05T12:08:31.547Z,1009.59
2016-07-05T12:09:34.387Z,1009.54